sensor_id;sensor_type;location;lat;lon;timestamp;temperature;humidity
75126;DHT22;63699;45.442;11.510;2022-12-07T00:00:18;16.10;75.50
75126;DHT22;63699;45.442;11.510;2022-12-07T00:02:44;16.10;75.50
75126;DHT22;63699;45.442;11.510;2022-12-07T00:05:09;16.10;75.60
75126;DHT22;63699;45.442;11.510;2022-12-07T00:07:35;16.10;75.60
75126;DHT22;63699;45.442;11.510;2022-12-07T00:10:00;16.10;75.60
75126;DHT22;63699;45.442;11.510;2022-12-07T00:12:26;16.00;75.50
75126;DHT22;63699;45.442;11.510;2022-12-07T00:14:52;16.10;75.70
75126;DHT22;63699;45.442;11.510;2022-12-07T00:17:17;16.00;75.50
75126;DHT22;63699;45.442;11.510;2022-12-07T00:19:43;16.00;75.50
75126;DHT22;63699;45.442;11.510;2022-12-07T00:22:08;16.10;75.60
75126;DHT22;63699;45.442;11.510;2022-12-07T00:24:34;16.00;75.60
75126;DHT22;63699;45.442;11.510;2022-12-07T00:26:59;16.00;75.60
75126;DHT22;63699;45.442;11.510;2022-12-07T00:29:25;16.00;75.60
75126;DHT22;63699;45.442;11.510;2022-12-07T00:31:50;16.00;75.60
75126;DHT22;63699;45.442;11.510;2022-12-07T00:34:21;16.00;75.60
75126;DHT22;63699;45.442;11.510;2022-12-07T00:36:47;16.00;75.60
75126;DHT22;63699;45.442;11.510;2022-12-07T00:39:13;16.00;75.60
75126;DHT22;63699;45.442;11.510;2022-12-07T00:41:38;16.00;75.60
75126;DHT22;63699;45.442;11.510;2022-12-07T00:44:04;16.00;75.60
75126;DHT22;63699;45.442;11.510;2022-12-07T00:46:30;15.90;75.70
75126;DHT22;63699;45.442;11.510;2022-12-07T00:48:55;16.00;75.70
75126;DHT22;63699;45.442;11.510;2022-12-07T00:51:23;16.00;75.70
75126;DHT22;63699;45.442;11.510;2022-12-07T00:53:49;16.00;75.70
75126;DHT22;63699;45.442;11.510;2022-12-07T00:58:42;15.90;75.70
75126;DHT22;63699;45.442;11.510;2022-12-07T01:01:09;15.90;75.60
75126;DHT22;63699;45.442;11.510;2022-12-07T01:03:36;16.00;75.80
75126;DHT22;63699;45.442;11.510;2022-12-07T01:06:03;15.90;75.70
75126;DHT22;63699;45.442;11.510;2022-12-07T01:08:31;15.90;75.70
75126;DHT22;63699;45.442;11.510;2022-12-07T01:11:05;16.00;75.70
75126;DHT22;63699;45.442;11.510;2022-12-07T01:13:32;16.00;75.70
75126;DHT22;63699;45.442;11.510;2022-12-07T01:16:00;15.90;75.70
75126;DHT22;63699;45.442;11.510;2022-12-07T01:18:27;16.00;75.80
75126;DHT22;63699;45.442;11.510;2022-12-07T01:21:06;15.90;75.70
75126;DHT22;63699;45.442;11.510;2022-12-07T01:23:33;16.00;75.70
75126;DHT22;63699;45.442;11.510;2022-12-07T01:26:01;15.90;75.70
75126;DHT22;63699;45.442;11.510;2022-12-07T01:28:28;15.90;75.70
75126;DHT22;63699;45.442;11.510;2022-12-07T01:31:21;16.00;75.70
75126;DHT22;63699;45.442;11.510;2022-12-07T01:33:49;15.90;75.70
75126;DHT22;63699;45.442;11.510;2022-12-07T01:36:29;15.90;75.80
75126;DHT22;63699;45.442;11.510;2022-12-07T01:38:58;15.90;75.80
75126;DHT22;63699;45.442;11.510;2022-12-07T01:41:26;15.90;75.80
75126;DHT22;63699;45.442;11.510;2022-12-07T01:46:37;15.90;75.80
75126;DHT22;63699;45.442;11.510;2022-12-07T01:49:12;15.90;75.90
75126;DHT22;63699;45.442;11.510;2022-12-07T01:51:40;15.90;75.90
75126;DHT22;63699;45.442;11.510;2022-12-07T01:54:08;15.90;75.80
75126;DHT22;63699;45.442;11.510;2022-12-07T01:56:35;15.90;75.80
75126;DHT22;63699;45.442;11.510;2022-12-07T01:59:01;15.90;75.90
75126;DHT22;63699;45.442;11.510;2022-12-07T02:01:27;15.90;75.90
75126;DHT22;63699;45.442;11.510;2022-12-07T02:03:53;15.90;75.90
75126;DHT22;63699;45.442;11.510;2022-12-07T02:06:22;15.90;75.90
75126;DHT22;63699;45.442;11.510;2022-12-07T02:08:49;15.90;75.90
75126;DHT22;63699;45.442;11.510;2022-12-07T02:11:15;15.90;75.80
75126;DHT22;63699;45.442;11.510;2022-12-07T02:13:42;15.90;75.90
75126;DHT22;63699;45.442;11.510;2022-12-07T02:24:14;15.90;76.00
75126;DHT22;63699;45.442;11.510;2022-12-07T02:29:54;15.80;75.90
75126;DHT22;63699;45.442;11.510;2022-12-07T02:40:38;15.90;76.00
75126;DHT22;63699;45.442;11.510;2022-12-07T02:43:09;15.90;75.90
75126;DHT22;63699;45.442;11.510;2022-12-07T02:45:39;15.90;75.90
75126;DHT22;63699;45.442;11.510;2022-12-07T02:48:07;15.90;76.00
75126;DHT22;63699;45.442;11.510;2022-12-07T02:50:34;15.90;75.90
75126;DHT22;63699;45.442;11.510;2022-12-07T02:52:59;15.80;75.90
75126;DHT22;63699;45.442;11.510;2022-12-07T02:55:31;15.90;75.90
75126;DHT22;63699;45.442;11.510;2022-12-07T03:03:30;15.90;75.90
75126;DHT22;63699;45.442;11.510;2022-12-07T03:06:24;15.80;75.90
75126;DHT22;63699;45.442;11.510;2022-12-07T03:09:09;15.90;75.90
75126;DHT22;63699;45.442;11.510;2022-12-07T03:11:46;15.80;75.90
75126;DHT22;63699;45.442;11.510;2022-12-07T03:16:48;15.80;76.00
75126;DHT22;63699;45.442;11.510;2022-12-07T03:19:18;15.80;76.00
75126;DHT22;63699;45.442;11.510;2022-12-07T03:21:58;15.90;76.00
75126;DHT22;63699;45.442;11.510;2022-12-07T03:24:29;15.90;76.00
75126;DHT22;63699;45.442;11.510;2022-12-07T03:27:03;15.80;76.00
75126;DHT22;63699;45.442;11.510;2022-12-07T03:29:45;15.80;76.00
75126;DHT22;63699;45.442;11.510;2022-12-07T03:37:41;15.80;76.50
75126;DHT22;63699;45.442;11.510;2022-12-07T03:42:59;15.80;76.00
75126;DHT22;63699;45.442;11.510;2022-12-07T03:45:34;15.80;76.00
75126;DHT22;63699;45.442;11.510;2022-12-07T03:53:18;15.90;76.00
75126;DHT22;63699;45.442;11.510;2022-12-07T03:55:47;15.80;76.00
75126;DHT22;63699;45.442;11.510;2022-12-07T03:58:17;15.80;76.10
75126;DHT22;63699;45.442;11.510;2022-12-07T04:00:44;15.80;76.00
75126;DHT22;63699;45.442;11.510;2022-12-07T04:03:10;15.80;76.00
75126;DHT22;63699;45.442;11.510;2022-12-07T04:05:36;15.80;76.00
75126;DHT22;63699;45.442;11.510;2022-12-07T04:08:02;15.80;76.10
75126;DHT22;63699;45.442;11.510;2022-12-07T04:10:28;15.80;76.10
75126;DHT22;63699;45.442;11.510;2022-12-07T04:12:55;15.80;76.20
75126;DHT22;63699;45.442;11.510;2022-12-07T04:15:21;15.80;76.20
75126;DHT22;63699;45.442;11.510;2022-12-07T04:17:46;15.80;76.10
75126;DHT22;63699;45.442;11.510;2022-12-07T04:20:12;15.80;76.20
75126;DHT22;63699;45.442;11.510;2022-12-07T04:22:38;15.80;76.10
75126;DHT22;63699;45.442;11.510;2022-12-07T04:25:04;15.80;76.10
75126;DHT22;63699;45.442;11.510;2022-12-07T04:27:30;15.80;76.10
75126;DHT22;63699;45.442;11.510;2022-12-07T04:29:55;15.80;76.10
75126;DHT22;63699;45.442;11.510;2022-12-07T04:32:21;15.80;76.20
75126;DHT22;63699;45.442;11.510;2022-12-07T04:34:47;15.80;76.20
75126;DHT22;63699;45.442;11.510;2022-12-07T04:37:13;15.80;76.20
75126;DHT22;63699;45.442;11.510;2022-12-07T04:39:38;15.80;76.20
75126;DHT22;63699;45.442;11.510;2022-12-07T04:42:04;15.80;76.30
75126;DHT22;63699;45.442;11.510;2022-12-07T04:44:30;15.80;76.20
75126;DHT22;63699;45.442;11.510;2022-12-07T04:46:57;15.80;76.10
75126;DHT22;63699;45.442;11.510;2022-12-07T04:49:23;15.80;76.20
75126;DHT22;63699;45.442;11.510;2022-12-07T04:51:49;15.80;76.20
75126;DHT22;63699;45.442;11.510;2022-12-07T04:54:15;15.80;76.20
75126;DHT22;63699;45.442;11.510;2022-12-07T04:56:41;15.80;76.10
75126;DHT22;63699;45.442;11.510;2022-12-07T04:59:07;15.80;76.20
75126;DHT22;63699;45.442;11.510;2022-12-07T05:01:33;15.80;76.30
75126;DHT22;63699;45.442;11.510;2022-12-07T05:03:59;15.80;76.30
75126;DHT22;63699;45.442;11.510;2022-12-07T05:06:25;15.80;76.30
75126;DHT22;63699;45.442;11.510;2022-12-07T05:08:51;15.80;76.20
75126;DHT22;63699;45.442;11.510;2022-12-07T05:11:17;15.80;76.20
75126;DHT22;63699;45.442;11.510;2022-12-07T05:14:02;15.80;76.20
75126;DHT22;63699;45.442;11.510;2022-12-07T05:16:28;15.70;76.20
75126;DHT22;63699;45.442;11.510;2022-12-07T05:18:54;15.70;76.20
75126;DHT22;63699;45.442;11.510;2022-12-07T05:21:19;15.80;76.20
75126;DHT22;63699;45.442;11.510;2022-12-07T05:23:45;15.70;76.20
75126;DHT22;63699;45.442;11.510;2022-12-07T05:26:11;15.80;76.30
75126;DHT22;63699;45.442;11.510;2022-12-07T05:28:36;15.80;76.20
75126;DHT22;63699;45.442;11.510;2022-12-07T05:31:02;15.80;76.20
75126;DHT22;63699;45.442;11.510;2022-12-07T05:33:28;15.70;76.20
75126;DHT22;63699;45.442;11.510;2022-12-07T05:35:54;15.80;76.20
75126;DHT22;63699;45.442;11.510;2022-12-07T05:38:19;15.80;76.20
75126;DHT22;63699;45.442;11.510;2022-12-07T05:40:45;15.80;76.30
75126;DHT22;63699;45.442;11.510;2022-12-07T05:43:10;15.80;76.20
75126;DHT22;63699;45.442;11.510;2022-12-07T05:45:36;15.80;76.20
75126;DHT22;63699;45.442;11.510;2022-12-07T05:48:02;15.80;76.80
75126;DHT22;63699;45.442;11.510;2022-12-07T05:50:27;15.80;76.20
75126;DHT22;63699;45.442;11.510;2022-12-07T05:52:53;15.80;76.20
75126;DHT22;63699;45.442;11.510;2022-12-07T05:55:19;15.70;76.20
75126;DHT22;63699;45.442;11.510;2022-12-07T05:57:45;15.70;76.20
75126;DHT22;63699;45.442;11.510;2022-12-07T06:00:30;15.70;76.20
75126;DHT22;63699;45.442;11.510;2022-12-07T06:02:56;15.70;76.20
75126;DHT22;63699;45.442;11.510;2022-12-07T06:05:22;15.70;76.20
75126;DHT22;63699;45.442;11.510;2022-12-07T06:07:47;15.70;76.20
75126;DHT22;63699;45.442;11.510;2022-12-07T06:10:13;15.70;76.30
75126;DHT22;63699;45.442;11.510;2022-12-07T06:12:39;15.70;76.30
75126;DHT22;63699;45.442;11.510;2022-12-07T06:15:08;15.70;76.20
75126;DHT22;63699;45.442;11.510;2022-12-07T06:17:34;15.70;76.20
75126;DHT22;63699;45.442;11.510;2022-12-07T06:19:59;15.70;76.30
75126;DHT22;63699;45.442;11.510;2022-12-07T06:22:25;15.80;76.30
75126;DHT22;63699;45.442;11.510;2022-12-07T06:24:50;15.70;76.30
75126;DHT22;63699;45.442;11.510;2022-12-07T06:27:16;15.70;76.20
75126;DHT22;63699;45.442;11.510;2022-12-07T06:29:41;15.70;76.20
75126;DHT22;63699;45.442;11.510;2022-12-07T06:32:07;15.70;76.20
75126;DHT22;63699;45.442;11.510;2022-12-07T06:34:33;15.70;76.30
75126;DHT22;63699;45.442;11.510;2022-12-07T06:36:58;15.80;76.30
75126;DHT22;63699;45.442;11.510;2022-12-07T06:39:26;15.70;76.20
75126;DHT22;63699;45.442;11.510;2022-12-07T06:41:52;15.70;76.20
75126;DHT22;63699;45.442;11.510;2022-12-07T06:44:19;15.70;76.30
75126;DHT22;63699;45.442;11.510;2022-12-07T06:46:45;15.70;76.40
75126;DHT22;63699;45.442;11.510;2022-12-07T06:49:10;15.70;76.50
75126;DHT22;63699;45.442;11.510;2022-12-07T06:51:37;15.70;76.50
75126;DHT22;63699;45.442;11.510;2022-12-07T06:54:09;15.70;76.40
75126;DHT22;63699;45.442;11.510;2022-12-07T06:56:35;15.60;76.40
75126;DHT22;63699;45.442;11.510;2022-12-07T06:59:01;15.70;76.40
75126;DHT22;63699;45.442;11.510;2022-12-07T07:01:27;15.60;76.30
75126;DHT22;63699;45.442;11.510;2022-12-07T07:03:53;15.60;76.40
75126;DHT22;63699;45.442;11.510;2022-12-07T07:06:19;15.60;76.40
75126;DHT22;63699;45.442;11.510;2022-12-07T07:08:44;15.70;76.50
75126;DHT22;63699;45.442;11.510;2022-12-07T07:11:10;15.60;76.30
75126;DHT22;63699;45.442;11.510;2022-12-07T07:13:36;15.70;76.40
75126;DHT22;63699;45.442;11.510;2022-12-07T07:16:02;15.70;76.50
75126;DHT22;63699;45.442;11.510;2022-12-07T07:18:28;15.70;76.40
75126;DHT22;63699;45.442;11.510;2022-12-07T07:20:55;15.70;76.60
75126;DHT22;63699;45.442;11.510;2022-12-07T07:23:21;15.70;76.60
75126;DHT22;63699;45.442;11.510;2022-12-07T07:25:47;15.70;76.80
75126;DHT22;63699;45.442;11.510;2022-12-07T07:28:13;15.70;76.90
75126;DHT22;63699;45.442;11.510;2022-12-07T07:30:39;15.70;76.90
75126;DHT22;63699;45.442;11.510;2022-12-07T07:33:05;15.70;76.90
75126;DHT22;63699;45.442;11.510;2022-12-07T07:35:33;15.70;77.00
75126;DHT22;63699;45.442;11.510;2022-12-07T07:37:59;15.70;77.00
75126;DHT22;63699;45.442;11.510;2022-12-07T07:40:25;15.70;77.00
75126;DHT22;63699;45.442;11.510;2022-12-07T07:42:52;15.70;77.00
75126;DHT22;63699;45.442;11.510;2022-12-07T07:45:20;15.70;77.00
75126;DHT22;63699;45.442;11.510;2022-12-07T07:47:45;15.70;76.90
75126;DHT22;63699;45.442;11.510;2022-12-07T07:50:11;15.70;76.90
75126;DHT22;63699;45.442;11.510;2022-12-07T07:52:37;15.70;77.00
75126;DHT22;63699;45.442;11.510;2022-12-07T07:55:03;15.70;76.80
75126;DHT22;63699;45.442;11.510;2022-12-07T07:57:29;15.70;76.70
75126;DHT22;63699;45.442;11.510;2022-12-07T07:59:54;15.70;76.60
75126;DHT22;63699;45.442;11.510;2022-12-07T08:02:20;15.70;76.70
75126;DHT22;63699;45.442;11.510;2022-12-07T08:04:46;15.70;76.70
75126;DHT22;63699;45.442;11.510;2022-12-07T08:07:13;15.70;77.40
75126;DHT22;63699;45.442;11.510;2022-12-07T08:09:39;15.70;77.60
75126;DHT22;63699;45.442;11.510;2022-12-07T08:12:05;15.70;77.60
75126;DHT22;63699;45.442;11.510;2022-12-07T08:17:09;15.80;78.20
75126;DHT22;63699;45.442;11.510;2022-12-07T08:19:35;15.80;78.70
75126;DHT22;63699;45.442;11.510;2022-12-07T08:22:00;15.80;79.00
75126;DHT22;63699;45.442;11.510;2022-12-07T08:24:27;15.90;79.20
75126;DHT22;63699;45.442;11.510;2022-12-07T08:26:52;15.90;79.20
75126;DHT22;63699;45.442;11.510;2022-12-07T08:29:18;15.90;79.50
75126;DHT22;63699;45.442;11.510;2022-12-07T08:31:43;16.00;79.50
75126;DHT22;63699;45.442;11.510;2022-12-07T08:34:12;16.00;79.10
75126;DHT22;63699;45.442;11.510;2022-12-07T08:36:38;16.10;78.50
75126;DHT22;63699;45.442;11.510;2022-12-07T08:39:04;16.00;76.90
75126;DHT22;63699;45.442;11.510;2022-12-07T08:41:30;16.10;77.80
75126;DHT22;63699;45.442;11.510;2022-12-07T08:43:56;16.10;78.00
75126;DHT22;63699;45.442;11.510;2022-12-07T08:46:24;16.10;78.30
75126;DHT22;63699;45.442;11.510;2022-12-07T08:49:06;16.20;77.80
75126;DHT22;63699;45.442;11.510;2022-12-07T08:51:33;16.10;77.80
75126;DHT22;63699;45.442;11.510;2022-12-07T08:54:00;16.20;78.10
75126;DHT22;63699;45.442;11.510;2022-12-07T08:56:27;16.20;78.00
75126;DHT22;63699;45.442;11.510;2022-12-07T08:58:53;16.20;77.80
75126;DHT22;63699;45.442;11.510;2022-12-07T09:01:18;16.30;77.70
75126;DHT22;63699;45.442;11.510;2022-12-07T09:03:44;16.30;77.60
75126;DHT22;63699;45.442;11.510;2022-12-07T09:06:10;16.30;77.60
75126;DHT22;63699;45.442;11.510;2022-12-07T09:08:43;16.30;77.50
75126;DHT22;63699;45.442;11.510;2022-12-07T09:11:09;16.30;77.10
75126;DHT22;63699;45.442;11.510;2022-12-07T09:13:35;16.30;77.10
75126;DHT22;63699;45.442;11.510;2022-12-07T09:16:00;16.30;77.80
75126;DHT22;63699;45.442;11.510;2022-12-07T09:18:26;16.40;77.40
75126;DHT22;63699;45.442;11.510;2022-12-07T09:20:52;16.40;77.40
75126;DHT22;63699;45.442;11.510;2022-12-07T09:23:18;16.50;77.10
75126;DHT22;63699;45.442;11.510;2022-12-07T09:25:43;16.50;77.10
75126;DHT22;63699;45.442;11.510;2022-12-07T09:28:09;16.50;76.80
75126;DHT22;63699;45.442;11.510;2022-12-07T09:30:35;16.50;77.10
75126;DHT22;63699;45.442;11.510;2022-12-07T09:33:01;16.60;77.10
75126;DHT22;63699;45.442;11.510;2022-12-07T09:35:27;16.60;76.70
75126;DHT22;63699;45.442;11.510;2022-12-07T09:37:52;16.60;76.60
75126;DHT22;63699;45.442;11.510;2022-12-07T09:40:20;16.60;76.70
75126;DHT22;63699;45.442;11.510;2022-12-07T09:42:49;16.60;76.80
75126;DHT22;63699;45.442;11.510;2022-12-07T09:45:23;16.60;76.80
75126;DHT22;63699;45.442;11.510;2022-12-07T09:47:50;16.70;76.50
75126;DHT22;63699;45.442;11.510;2022-12-07T09:50:20;16.60;76.50
75126;DHT22;63699;45.442;11.510;2022-12-07T09:52:47;16.60;76.50
75126;DHT22;63699;45.442;11.510;2022-12-07T09:55:16;16.60;76.40
75126;DHT22;63699;45.442;11.510;2022-12-07T09:57:45;16.70;76.30
75126;DHT22;63699;45.442;11.510;2022-12-07T10:00:16;16.70;76.20
75126;DHT22;63699;45.442;11.510;2022-12-07T10:02:46;16.70;76.30
75126;DHT22;63699;45.442;11.510;2022-12-07T10:07:52;16.60;76.50
75126;DHT22;63699;45.442;11.510;2022-12-07T10:10:30;16.60;76.40
75126;DHT22;63699;45.442;11.510;2022-12-07T10:13:02;16.60;76.40
75126;DHT22;63699;45.442;11.510;2022-12-07T10:15:51;16.60;76.50
75126;DHT22;63699;45.442;11.510;2022-12-07T10:18:20;16.60;76.60
75126;DHT22;63699;45.442;11.510;2022-12-07T10:20:48;16.60;76.30
75126;DHT22;63699;45.442;11.510;2022-12-07T10:23:16;16.70;76.10
75126;DHT22;63699;45.442;11.510;2022-12-07T10:25:42;16.70;75.50
75126;DHT22;63699;45.442;11.510;2022-12-07T10:30:49;16.60;74.90
75126;DHT22;63699;45.442;11.510;2022-12-07T10:35:53;16.60;74.10
75126;DHT22;63699;45.442;11.510;2022-12-07T10:38:19;16.60;73.60
75126;DHT22;63699;45.442;11.510;2022-12-07T10:40:45;16.60;73.40
75126;DHT22;63699;45.442;11.510;2022-12-07T10:54:03;16.70;71.90
75126;DHT22;63699;45.442;11.510;2022-12-07T10:56:39;16.70;71.80
75126;DHT22;63699;45.442;11.510;2022-12-07T11:01:54;16.70;71.60
75126;DHT22;63699;45.442;11.510;2022-12-07T11:10:13;15.60;56.80
75126;DHT22;63699;45.442;11.510;2022-12-07T11:12:54;15.30;65.10
75126;DHT22;63699;45.442;11.510;2022-12-07T11:15:35;15.40;68.90
75126;DHT22;63699;45.442;11.510;2022-12-07T11:20:56;15.70;71.10
75126;DHT22;63699;45.442;11.510;2022-12-07T11:23:42;15.80;71.30
75126;DHT22;63699;45.442;11.510;2022-12-07T11:34:18;16.00;72.80
75126;DHT22;63699;45.442;11.510;2022-12-07T11:36:52;16.00;73.30
75126;DHT22;63699;45.442;11.510;2022-12-07T11:41:51;16.10;73.80
75126;DHT22;63699;45.442;11.510;2022-12-07T11:47:27;16.10;74.10
75126;DHT22;63699;45.442;11.510;2022-12-07T11:52:34;16.10;74.90
75126;DHT22;63699;45.442;11.510;2022-12-07T11:55:06;16.20;74.90
75126;DHT22;63699;45.442;11.510;2022-12-07T11:57:43;16.20;74.90
75126;DHT22;63699;45.442;11.510;2022-12-07T12:00:16;16.20;74.80
75126;DHT22;63699;45.442;11.510;2022-12-07T12:03:15;16.20;74.40
75126;DHT22;63699;45.442;11.510;2022-12-07T12:05:41;16.30;73.90
75126;DHT22;63699;45.442;11.510;2022-12-07T12:08:20;16.40;73.60
75126;DHT22;63699;45.442;11.510;2022-12-07T12:22:13;14.80;66.00
75126;DHT22;63699;45.442;11.510;2022-12-07T12:24:40;15.00;66.00
75126;DHT22;63699;45.442;11.510;2022-12-07T12:27:09;15.20;66.40
75126;DHT22;63699;45.442;11.510;2022-12-07T12:29:41;15.30;67.00
75126;DHT22;63699;45.442;11.510;2022-12-07T12:42:58;15.70;68.10
75126;DHT22;63699;45.442;11.510;2022-12-07T12:45:29;15.80;68.20
75126;DHT22;63699;45.442;11.510;2022-12-07T12:51:38;16.00;68.60
75126;DHT22;63699;45.442;11.510;2022-12-07T12:54:11;16.00;68.80
75126;DHT22;63699;45.442;11.510;2022-12-07T12:59:59;16.20;69.30
75126;DHT22;63699;45.442;11.510;2022-12-07T13:02:49;16.20;69.50
75126;DHT22;63699;45.442;11.510;2022-12-07T13:05:20;16.30;69.70
75126;DHT22;63699;45.442;11.510;2022-12-07T13:18:25;16.50;70.40
75126;DHT22;63699;45.442;11.510;2022-12-07T13:20:58;16.50;70.60
75126;DHT22;63699;45.442;11.510;2022-12-07T13:31:34;16.60;70.80
75126;DHT22;63699;45.442;11.510;2022-12-07T13:34:02;16.60;70.80
75126;DHT22;63699;45.442;11.510;2022-12-07T13:39:20;16.70;70.90
75126;DHT22;63699;45.442;11.510;2022-12-07T13:41:55;16.80;71.00
75126;DHT22;63699;45.442;11.510;2022-12-07T13:44:22;16.80;71.10
75126;DHT22;63699;45.442;11.510;2022-12-07T13:47:07;16.80;71.10
75126;DHT22;63699;45.442;11.510;2022-12-07T13:49:49;16.80;71.80
75126;DHT22;63699;45.442;11.510;2022-12-07T13:52:33;16.90;71.30
75126;DHT22;63699;45.442;11.510;2022-12-07T13:55:16;16.90;71.30
75126;DHT22;63699;45.442;11.510;2022-12-07T13:57:44;16.90;71.40
75126;DHT22;63699;45.442;11.510;2022-12-07T14:00:20;16.90;71.50
75126;DHT22;63699;45.442;11.510;2022-12-07T14:03:20;16.90;71.50
75126;DHT22;63699;45.442;11.510;2022-12-07T14:06:24;16.90;71.60
75126;DHT22;63699;45.442;11.510;2022-12-07T14:08:51;16.90;71.70
75126;DHT22;63699;45.442;11.510;2022-12-07T14:11:30;17.00;71.80
75126;DHT22;63699;45.442;11.510;2022-12-07T14:13:59;17.00;71.90
75126;DHT22;63699;45.442;11.510;2022-12-07T14:16:34;16.90;71.90
75126;DHT22;63699;45.442;11.510;2022-12-07T14:19:06;16.90;71.90
75126;DHT22;63699;45.442;11.510;2022-12-07T14:21:47;16.90;72.00
75126;DHT22;63699;45.442;11.510;2022-12-07T14:24:44;16.90;72.10
75126;DHT22;63699;45.442;11.510;2022-12-07T14:27:23;16.80;72.10
75126;DHT22;63699;45.442;11.510;2022-12-07T14:29:51;16.90;72.20
75126;DHT22;63699;45.442;11.510;2022-12-07T14:32:26;16.90;72.30
75126;DHT22;63699;45.442;11.510;2022-12-07T14:35:10;17.00;72.40
75126;DHT22;63699;45.442;11.510;2022-12-07T14:37:37;16.90;72.40
75126;DHT22;63699;45.442;11.510;2022-12-07T14:40:04;17.00;72.50
75126;DHT22;63699;45.442;11.510;2022-12-07T14:42:31;17.00;72.50
75126;DHT22;63699;45.442;11.510;2022-12-07T14:44:57;17.00;72.60
75126;DHT22;63699;45.442;11.510;2022-12-07T14:47:24;17.00;72.70
75126;DHT22;63699;45.442;11.510;2022-12-07T14:49:50;17.00;72.80
75126;DHT22;63699;45.442;11.510;2022-12-07T14:52:21;17.00;72.80
75126;DHT22;63699;45.442;11.510;2022-12-07T14:54:48;17.00;72.80
75126;DHT22;63699;45.442;11.510;2022-12-07T14:57:14;17.10;72.90
75126;DHT22;63699;45.442;11.510;2022-12-07T14:59:40;17.10;72.90
75126;DHT22;63699;45.442;11.510;2022-12-07T15:02:06;17.10;73.00
75126;DHT22;63699;45.442;11.510;2022-12-07T15:04:32;17.10;73.60
75126;DHT22;63699;45.442;11.510;2022-12-07T15:07:01;17.20;73.10
75126;DHT22;63699;45.442;11.510;2022-12-07T15:09:26;17.20;73.10
75126;DHT22;63699;45.442;11.510;2022-12-07T15:11:52;17.30;73.10
75126;DHT22;63699;45.442;11.510;2022-12-07T15:14:18;17.30;73.10
75126;DHT22;63699;45.442;11.510;2022-12-07T15:16:43;17.40;73.00
75126;DHT22;63699;45.442;11.510;2022-12-07T15:19:18;17.50;72.90
75126;DHT22;63699;45.442;11.510;2022-12-07T15:21:44;17.50;72.90
75126;DHT22;63699;45.442;11.510;2022-12-07T15:24:11;17.60;72.90
75126;DHT22;63699;45.442;11.510;2022-12-07T15:26:38;17.60;72.80
75126;DHT22;63699;45.442;11.510;2022-12-07T15:29:04;17.60;72.80
75126;DHT22;63699;45.442;11.510;2022-12-07T15:31:30;17.60;72.60
75126;DHT22;63699;45.442;11.510;2022-12-07T15:33:56;17.70;72.60
75126;DHT22;63699;45.442;11.510;2022-12-07T15:36:24;17.70;72.40
75126;DHT22;63699;45.442;11.510;2022-12-07T15:38:50;17.70;72.50
75126;DHT22;63699;45.442;11.510;2022-12-07T15:41:16;17.70;72.50
75126;DHT22;63699;45.442;11.510;2022-12-07T15:43:42;17.70;72.40
75126;DHT22;63699;45.442;11.510;2022-12-07T15:46:35;17.70;72.30
75126;DHT22;63699;45.442;11.510;2022-12-07T15:49:01;17.80;72.40
75126;DHT22;63699;45.442;11.510;2022-12-07T15:51:27;17.80;72.40
75126;DHT22;63699;45.442;11.510;2022-12-07T15:53:53;17.80;72.40
75126;DHT22;63699;45.442;11.510;2022-12-07T15:56:20;17.80;72.40
75126;DHT22;63699;45.442;11.510;2022-12-07T15:58:46;17.70;72.40
75126;DHT22;63699;45.442;11.510;2022-12-07T16:01:17;17.70;72.40
75126;DHT22;63699;45.442;11.510;2022-12-07T16:03:45;17.70;72.00
75126;DHT22;63699;45.442;11.510;2022-12-07T16:06:14;17.70;72.00
75126;DHT22;63699;45.442;11.510;2022-12-07T16:08:46;17.70;71.90
75126;DHT22;63699;45.442;11.510;2022-12-07T16:11:12;17.70;72.40
75126;DHT22;63699;45.442;11.510;2022-12-07T16:13:38;17.70;71.80
75126;DHT22;63699;45.442;11.510;2022-12-07T16:16:06;17.70;71.80
75126;DHT22;63699;45.442;11.510;2022-12-07T16:18:33;17.70;71.80
75126;DHT22;63699;45.442;11.510;2022-12-07T16:20:58;17.70;71.80
75126;DHT22;63699;45.442;11.510;2022-12-07T16:23:24;17.70;71.80
75126;DHT22;63699;45.442;11.510;2022-12-07T16:25:50;17.70;71.90
75126;DHT22;63699;45.442;11.510;2022-12-07T16:28:15;17.70;71.90
75126;DHT22;63699;45.442;11.510;2022-12-07T16:30:41;17.80;72.00
75126;DHT22;63699;45.442;11.510;2022-12-07T16:33:06;17.80;72.00
75126;DHT22;63699;45.442;11.510;2022-12-07T16:35:32;17.80;71.90
75126;DHT22;63699;45.442;11.510;2022-12-07T16:37:58;17.80;71.90
75126;DHT22;63699;45.442;11.510;2022-12-07T16:40:23;17.90;71.90
75126;DHT22;63699;45.442;11.510;2022-12-07T16:42:49;17.90;72.00
75126;DHT22;63699;45.442;11.510;2022-12-07T16:45:14;17.90;71.80
75126;DHT22;63699;45.442;11.510;2022-12-07T16:47:40;17.90;71.50
75126;DHT22;63699;45.442;11.510;2022-12-07T16:50:06;18.00;71.60
75126;DHT22;63699;45.442;11.510;2022-12-07T16:52:33;18.00;71.70
75126;DHT22;63699;45.442;11.510;2022-12-07T16:54:59;18.00;71.60
75126;DHT22;63699;45.442;11.510;2022-12-07T16:57:24;18.00;71.60
75126;DHT22;63699;45.442;11.510;2022-12-07T16:59:51;17.90;71.60
75126;DHT22;63699;45.442;11.510;2022-12-07T17:02:17;17.90;71.50
75126;DHT22;63699;45.442;11.510;2022-12-07T17:04:42;17.90;71.50
75126;DHT22;63699;45.442;11.510;2022-12-07T17:07:09;17.90;71.50
75126;DHT22;63699;45.442;11.510;2022-12-07T17:09:35;17.90;71.70
75126;DHT22;63699;45.442;11.510;2022-12-07T17:12:01;17.90;71.50
75126;DHT22;63699;45.442;11.510;2022-12-07T17:14:27;17.90;71.30
75126;DHT22;63699;45.442;11.510;2022-12-07T17:17:11;17.90;70.80
75126;DHT22;63699;45.442;11.510;2022-12-07T17:19:37;17.90;70.80
75126;DHT22;63699;45.442;11.510;2022-12-07T17:22:03;17.90;70.80
75126;DHT22;63699;45.442;11.510;2022-12-07T17:24:29;17.80;70.70
75126;DHT22;63699;45.442;11.510;2022-12-07T17:26:54;17.80;70.30
75126;DHT22;63699;45.442;11.510;2022-12-07T17:29:20;17.80;70.40
75126;DHT22;63699;45.442;11.510;2022-12-07T17:31:47;17.80;70.60
75126;DHT22;63699;45.442;11.510;2022-12-07T17:34:14;17.80;70.60
75126;DHT22;63699;45.442;11.510;2022-12-07T17:36:41;17.80;70.80
75126;DHT22;63699;45.442;11.510;2022-12-07T17:39:11;17.80;70.80
75126;DHT22;63699;45.442;11.510;2022-12-07T17:41:38;17.80;70.90
75126;DHT22;63699;45.442;11.510;2022-12-07T17:44:23;17.80;70.90
75126;DHT22;63699;45.442;11.510;2022-12-07T17:46:51;17.80;70.80
75126;DHT22;63699;45.442;11.510;2022-12-07T17:49:20;17.80;70.00